createdAt,value
2019-02-26T00:00:19.960Z,11.91
2019-02-26T00:00:49.602Z,11.88
2019-02-26T00:01:18.650Z,11.9
2019-02-26T00:01:46.745Z,11.88
2019-02-26T00:02:17.284Z,11.87
2019-02-26T00:02:46.488Z,11.81
2019-02-26T00:03:13.119Z,11.73
2019-02-26T00:03:41.239Z,11.72
2019-02-26T00:04:07.375Z,11.84
2019-02-26T00:04:36.956Z,11.78
2019-02-26T00:05:05.044Z,11.8
2019-02-26T00:05:34.123Z,11.81
2019-02-26T00:06:03.724Z,11.8
2019-02-26T00:06:32.831Z,11.78
2019-02-26T00:07:01.424Z,11.73
2019-02-26T00:07:30.434Z,11.83
2019-02-26T00:08:00.027Z,11.8
2019-02-26T00:08:28.683Z,11.78
2019-02-26T00:08:58.689Z,11.75
2019-02-26T00:09:27.549Z,11.59
2019-02-26T00:09:55.659Z,11.6
2019-02-26T00:10:26.527Z,11.52
2019-02-26T00:10:54.691Z,11.5
2019-02-26T00:11:24.319Z,11.51
2019-02-26T00:11:49.971Z,11.6
2019-02-26T00:12:19.915Z,11.54
2019-02-26T00:12:46.084Z,11.66
2019-02-26T00:13:12.195Z,11.59
2019-02-26T00:13:41.269Z,11.54
2019-02-26T00:14:13.043Z,11.59
2019-02-26T00:14:38.564Z,11.62
2019-02-26T00:15:07.666Z,11.52
2019-02-26T00:15:35.728Z,11.63
2019-02-26T00:16:07.554Z,11.65
2019-02-26T00:16:35.983Z,11.6
2019-02-26T00:17:05.967Z,11.66
2019-02-26T00:17:36.051Z,11.63
2019-02-26T00:18:02.370Z,11.55
2019-02-26T00:18:31.441Z,11.6
2019-02-26T00:19:00.800Z,11.62
2019-02-26T00:19:27.413Z,11.63
2019-02-26T00:19:53.525Z,11.66
2019-02-26T00:20:21.630Z,11.7
2019-02-26T00:20:49.724Z,11.65
2019-02-26T00:21:19.825Z,11.68
2019-02-26T00:21:49.598Z,11.7
2019-02-26T00:22:18.115Z,11.73
2019-02-26T00:22:45.392Z,11.75
2019-02-26T00:23:13.510Z,11.72
2019-02-26T00:23:42.011Z,11.77
2019-02-26T00:24:12.319Z,11.73
2019-02-26T00:24:40.323Z,11.78
2019-02-26T00:25:10.230Z,11.8
2019-02-26T00:25:36.595Z,11.81
2019-02-26T00:26:02.709Z,11.81
2019-02-26T00:26:31.783Z,11.81
2019-02-26T00:27:01.409Z,11.81
2019-02-26T00:27:30.523Z,11.78
2019-02-26T00:27:58.616Z,11.86
2019-02-26T00:28:27.294Z,11.86
2019-02-26T00:28:57.178Z,11.87
2019-02-26T00:29:26.037Z,11.86
2019-02-26T00:29:55.151Z,11.88
2019-02-26T00:30:23.885Z,11.87
2019-02-26T00:30:52.932Z,11.8
2019-02-26T00:31:21.407Z,11.81
2019-02-26T00:31:50.742Z,11.9
2019-02-26T00:32:18.369Z,11.86
2019-02-26T00:32:45.352Z,11.81
2019-02-26T00:33:12.508Z,11.84
2019-02-26T00:33:40.596Z,11.86
2019-02-26T00:34:08.263Z,11.84
2019-02-26T00:34:37.164Z,11.86
2019-02-26T00:35:04.846Z,11.86
2019-02-26T00:35:33.059Z,11.87
2019-02-26T00:36:01.132Z,11.87
2019-02-26T00:36:29.664Z,11.88
2019-02-26T00:36:59.029Z,11.86
2019-02-26T00:37:26.785Z,11.8
2019-02-26T00:37:55.850Z,11.72
2019-02-26T00:38:23.963Z,11.63
2019-02-26T00:38:52.050Z,11.63
2019-02-26T00:39:20.603Z,11.62
2019-02-26T00:39:48.068Z,11.54
2019-02-26T00:40:15.195Z,11.57
2019-02-26T00:40:43.536Z,11.55
2019-02-26T00:41:11.620Z,11.48
2019-02-26T00:41:40.719Z,11.57
2019-02-26T00:42:10.493Z,11.48
2019-02-26T00:42:39.591Z,11.37
2019-02-26T00:43:08.660Z,11.48
2019-02-26T00:43:37.056Z,11.48
2019-02-26T00:44:06.518Z,11.43
2019-02-26T00:44:37.290Z,11.48
2019-02-26T00:45:05.709Z,11.54
2019-02-26T00:45:34.550Z,11.51
2019-02-26T00:46:03.125Z,11.47
2019-02-26T00:46:30.660Z,11.5
2019-02-26T00:46:59.659Z,11.48
2019-02-26T00:47:25.262Z,11.47
2019-02-26T00:47:54.338Z,11.51
2019-02-26T00:48:20.467Z,11.51
2019-02-26T00:48:48.593Z,11.52
2019-02-26T00:49:16.722Z,11.59
2019-02-26T00:49:46.287Z,11.51
2019-02-26T00:50:14.638Z,11.51
2019-02-26T00:50:42.781Z,11.55
2019-02-26T00:51:10.891Z,11.63
2019-02-26T00:51:39.870Z,11.63
2019-02-26T00:52:11.016Z,11.57
2019-02-26T00:52:39.163Z,11.55
2019-02-26T00:53:06.672Z,11.69
2019-02-26T00:53:34.777Z,11.63
2019-02-26T00:54:04.084Z,11.68
2019-02-26T00:54:34.189Z,11.66
2019-02-26T00:55:02.915Z,11.62
2019-02-26T00:55:32.114Z,11.72
2019-02-26T00:56:01.012Z,11.7
2019-02-26T00:56:29.751Z,11.69
2019-02-26T00:56:57.521Z,11.63
2019-02-26T00:57:27.255Z,11.68
2019-02-26T00:57:56.744Z,11.69
2019-02-26T00:58:23.874Z,11.69
2019-02-26T00:58:52.950Z,11.69
2019-02-26T00:59:19.064Z,11.73
2019-02-26T00:59:48.075Z,11.65
2019-02-26T01:00:17.174Z,11.69
2019-02-26T01:00:45.946Z,11.66
2019-02-26T01:01:15.196Z,11.7
2019-02-26T01:01:44.028Z,11.65
2019-02-26T01:02:10.199Z,11.59
2019-02-26T01:02:36.303Z,11.65
2019-02-26T01:03:03.905Z,11.57
2019-02-26T01:03:31.018Z,11.59
2019-02-26T01:03:59.096Z,11.55
2019-02-26T01:04:25.208Z,11.63
2019-02-26T01:04:53.318Z,11.55
2019-02-26T01:05:21.400Z,11.57
2019-02-26T01:05:49.488Z,11.6
2019-02-26T01:06:17.577Z,11.63
2019-02-26T01:06:45.661Z,11.59
2019-02-26T01:07:13.757Z,11.54
2019-02-26T01:07:42.435Z,11.63
2019-02-26T01:08:13.260Z,11.63
2019-02-26T01:08:40.068Z,11.62
2019-02-26T01:09:09.263Z,11.63
2019-02-26T01:09:36.379Z,11.63
2019-02-26T01:10:04.491Z,11.68
2019-02-26T01:10:34.553Z,11.66
2019-02-26T01:11:03.846Z,11.62
2019-02-26T01:11:31.725Z,11.57
2019-02-26T01:11:59.803Z,11.62
2019-02-26T01:12:28.724Z,11.62
2019-02-26T01:12:58.565Z,11.6
2019-02-26T01:13:27.621Z,11.6
2019-02-26T01:13:55.132Z,11.52
2019-02-26T01:14:22.845Z,11.54
2019-02-26T01:14:50.970Z,11.54
2019-02-26T01:15:19.082Z,11.54
2019-02-26T01:15:45.195Z,11.59
2019-02-26T01:16:11.299Z,11.51
2019-02-26T01:16:39.228Z,11.51
2019-02-26T01:17:04.533Z,11.51
2019-02-26T01:17:33.348Z,11.47
2019-02-26T01:18:03.075Z,11.59
2019-02-26T01:18:30.473Z,11.51
2019-02-26T01:18:58.563Z,11.47
2019-02-26T01:19:26.672Z,11.48
2019-02-26T01:19:56.381Z,11.5
2019-02-26T01:20:25.401Z,11.37
2019-02-26T01:20:54.718Z,11.43
2019-02-26T01:21:22.638Z,11.4
2019-02-26T01:21:50.101Z,11.41
2019-02-26T01:22:16.211Z,11.33
2019-02-26T01:22:45.322Z,11.3
2019-02-26T01:23:10.444Z,11.32
2019-02-26T01:23:38.581Z,11.27
2019-02-26T01:24:06.447Z,11.26
2019-02-26T01:24:34.751Z,11.29
2019-02-26T01:25:02.841Z,11.17
2019-02-26T01:25:31.915Z,11.23
2019-02-26T01:25:59.922Z,11.14
2019-02-26T01:26:27.804Z,11.12
2019-02-26T01:26:54.009Z,11.1
2019-02-26T01:27:20.117Z,11.14
2019-02-26T01:27:48.105Z,11.23
2019-02-26T01:28:18.078Z,11.23
2019-02-26T01:28:48.057Z,11.22
2019-02-26T01:29:16.746Z,11.14
2019-02-26T01:29:44.519Z,11.11
2019-02-26T01:30:11.319Z,11.12
2019-02-26T01:30:41.374Z,11.15
2019-02-26T01:31:11.441Z,11.15
2019-02-26T01:31:39.529Z,11.15
2019-02-26T01:32:08.833Z,11.15
2019-02-26T01:32:35.703Z,11.19
2019-02-26T01:33:04.963Z,11.23
2019-02-26T01:33:34.261Z,11.25
2019-02-26T01:34:02.628Z,11.22
2019-02-26T01:34:30.838Z,11.14
2019-02-26T01:35:00.808Z,11.14
2019-02-26T01:35:30.541Z,11.1
2019-02-26T01:35:58.377Z,11.08
2019-02-26T01:36:26.730Z,11.02
2019-02-26T01:36:54.805Z,10.94
2019-02-26T01:37:22.486Z,10.94
2019-02-26T01:37:51.373Z,10.97
2019-02-26T01:38:21.305Z,11.04
2019-02-26T01:38:50.872Z,11.04
2019-02-26T01:39:19.039Z,11.04
2019-02-26T01:39:47.152Z,10.94
2019-02-26T01:40:16.276Z,10.96
2019-02-26T01:40:44.134Z,11
2019-02-26T01:41:13.605Z,10.94
2019-02-26T01:41:45.279Z,10.96
2019-02-26T01:42:10.665Z,10.92
2019-02-26T01:42:38.003Z,10.94
2019-02-26T01:43:06.141Z,10.96
2019-02-26T01:43:32.256Z,10.92
2019-02-26T01:43:58.359Z,11.04
2019-02-26T01:44:28.004Z,10.96
2019-02-26T01:44:53.643Z,10.96
2019-02-26T01:45:21.737Z,11.04
2019-02-26T01:45:50.735Z,10.97
2019-02-26T01:46:18.737Z,11.02
2019-02-26T01:46:45.483Z,11.05
2019-02-26T01:47:13.566Z,11.12
2019-02-26T01:47:42.749Z,11.02
2019-02-26T01:48:11.804Z,11.07
2019-02-26T01:48:39.553Z,11.07
2019-02-26T01:49:07.912Z,11
2019-02-26T01:49:35.999Z,11.12
2019-02-26T01:50:06.872Z,11.14
2019-02-26T01:50:35.513Z,11.1
2019-02-26T01:51:03.372Z,11.11
2019-02-26T01:51:30.506Z,11.15
2019-02-26T01:51:59.169Z,11.15
2019-02-26T01:52:27.887Z,11.08
2019-02-26T01:52:56.638Z,11.14
2019-02-26T01:53:24.066Z,11.12
2019-02-26T01:53:51.923Z,11.07
2019-02-26T01:54:19.269Z,11
2019-02-26T01:54:46.386Z,11.02
2019-02-26T01:55:16.046Z,11.11
2019-02-26T01:55:45.901Z,11.12
2019-02-26T01:56:12.447Z,11.12
2019-02-26T01:56:40.530Z,11.11
2019-02-26T01:57:09.117Z,11.17
2019-02-26T01:57:35.708Z,11.1
2019-02-26T01:58:03.795Z,11.17
2019-02-26T01:58:33.407Z,11.23
2019-02-26T01:59:02.078Z,11.15
2019-02-26T01:59:26.173Z,11.19
2019-02-26T01:59:54.266Z,11.22
2019-02-26T02:00:21.360Z,11.19
2019-02-26T02:00:48.465Z,11.23
2019-02-26T02:01:17.292Z,11.18
2019-02-26T02:01:46.506Z,11.19
2019-02-26T02:02:17.445Z,11.23
2019-02-26T02:02:42.913Z,11.25
2019-02-26T02:03:09.134Z,11.26
2019-02-26T02:03:37.832Z,11.29
2019-02-26T02:04:08.622Z,11.19
2019-02-26T02:04:36.937Z,11.19
2019-02-26T02:05:04.887Z,11.27
2019-02-26T02:05:32.094Z,11.29
2019-02-26T02:05:59.241Z,11.29
2019-02-26T02:06:30.051Z,11.25
2019-02-26T02:06:57.138Z,11.25
2019-02-26T02:07:26.379Z,11.27
2019-02-26T02:07:55.494Z,11.23
2019-02-26T02:08:22.949Z,11.27
2019-02-26T02:08:52.887Z,11.3
2019-02-26T02:09:20.439Z,11.29
2019-02-26T02:09:50.550Z,11.19
2019-02-26T02:10:16.039Z,11.3
2019-02-26T02:10:42.200Z,11.25
2019-02-26T02:11:12.271Z,11.19
2019-02-26T02:11:41.359Z,11.29
2019-02-26T02:12:11.013Z,11.25
2019-02-26T02:12:39.542Z,11.23
2019-02-26T02:13:07.074Z,11.26
2019-02-26T02:13:36.345Z,11.19
2019-02-26T02:14:05.948Z,11.17
2019-02-26T02:14:32.776Z,11.26
2019-02-26T02:14:58.885Z,11.26
2019-02-26T02:15:27.962Z,11.26
2019-02-26T02:15:57.559Z,11.25
2019-02-26T02:16:26.536Z,11.29
2019-02-26T02:16:52.669Z,11.22
2019-02-26T02:17:20.753Z,11.26
2019-02-26T02:17:48.842Z,11.15
2019-02-26T02:18:18.080Z,11.23
2019-02-26T02:18:48.756Z,11.15
2019-02-26T02:19:18.102Z,11.08
2019-02-26T02:19:42.796Z,11.1
2019-02-26T02:20:10.905Z,11.1
2019-02-26T02:20:37.322Z,11.08
2019-02-26T02:21:03.420Z,11
2019-02-26T02:21:31.418Z,11.12
2019-02-26T02:21:59.603Z,11.08
2019-02-26T02:22:29.503Z,11.1
2019-02-26T02:22:58.135Z,11.04
2019-02-26T02:23:27.872Z,11.04
2019-02-26T02:23:54.878Z,10.94
2019-02-26T02:24:24.562Z,11
2019-02-26T02:24:55.574Z,11
2019-02-26T02:25:20.733Z,10.94
2019-02-26T02:25:50.804Z,10.94
2019-02-26T02:26:20.866Z,10.79
2019-02-26T02:26:50.354Z,10.94
2019-02-26T02:27:19.409Z,10.92
2019-02-26T02:27:48.220Z,10.87
2019-02-26T02:28:16.671Z,10.9
2019-02-26T02:28:45.032Z,10.84
2019-02-26T02:29:12.762Z,10.82
2019-02-26T02:29:42.312Z,10.94
2019-02-26T02:30:14.112Z,10.87
2019-02-26T02:30:40.374Z,10.87
2019-02-26T02:31:06.478Z,10.92
2019-02-26T02:31:35.828Z,10.87
2019-02-26T02:32:04.941Z,10.92
2019-02-26T02:32:34.456Z,10.81
2019-02-26T02:33:02.092Z,10.81
2019-02-26T02:33:32.861Z,10.87
2019-02-26T02:33:58.105Z,10.96
2019-02-26T02:34:26.890Z,10.82
2019-02-26T02:34:58.216Z,10.87
2019-02-26T02:35:23.678Z,10.92
2019-02-26T02:35:49.814Z,10.9
2019-02-26T02:36:17.585Z,10.97
2019-02-26T02:36:44.024Z,10.89
2019-02-26T02:37:10.149Z,11.02
2019-02-26T02:37:37.303Z,10.97
2019-02-26T02:38:05.399Z,11.04
2019-02-26T02:38:36.446Z,10.92
2019-02-26T02:38:59.614Z,10.84
2019-02-26T02:39:29.676Z,10.79
2019-02-26T02:39:55.788Z,10.71
2019-02-26T02:40:21.911Z,10.71
2019-02-26T02:40:51.852Z,10.6
2019-02-26T02:41:16.119Z,10.54
2019-02-26T02:41:45.322Z,10.54
2019-02-26T02:42:13.965Z,10.42
2019-02-26T02:42:42.863Z,10.37
2019-02-26T02:43:09.942Z,10.34
2019-02-26T02:43:38.560Z,10.3
2019-02-26T02:44:04.691Z,10.25
2019-02-26T02:44:33.795Z,10.22
2019-02-26T02:45:01.901Z,10.12
2019-02-26T02:45:30.978Z,10.1
2019-02-26T02:46:01.272Z,9.99
2019-02-26T02:46:26.180Z,9.92
2019-02-26T02:46:54.328Z,9.86
2019-02-26T02:47:25.179Z,9.82
2019-02-26T02:47:55.572Z,9.86
2019-02-26T02:48:22.944Z,9.68
2019-02-26T02:48:49.584Z,9.64
2019-02-26T02:49:19.089Z,9.55
2019-02-26T02:49:47.752Z,9.58
2019-02-26T02:50:18.260Z,9.55
2019-02-26T02:50:43.409Z,9.5
2019-02-26T02:51:13.763Z,9.46
2019-02-26T02:51:42.448Z,9.41
2019-02-26T02:52:11.799Z,9.41
2019-02-26T02:52:41.369Z,9.47
2019-02-26T02:53:09.904Z,9.46
2019-02-26T02:53:38.518Z,9.44
2019-02-26T02:54:07.948Z,9.46
2019-02-26T02:54:35.111Z,9.47
2019-02-26T02:55:04.488Z,9.43
2019-02-26T02:55:31.333Z,9.43
2019-02-26T02:55:59.438Z,9.43
2019-02-26T02:56:30.731Z,9.37
2019-02-26T02:56:57.556Z,9.43
2019-02-26T02:57:27.315Z,9.44
2019-02-26T02:57:58.317Z,9.39
2019-02-26T02:58:26.034Z,9.46
2019-02-26T02:58:55.206Z,9.47
2019-02-26T02:59:22.328Z,9.48
2019-02-26T02:59:51.401Z,9.43
2019-02-26T03:00:21.060Z,9.4
2019-02-26T03:00:49.391Z,9.54
2019-02-26T03:01:19.455Z,9.48
2019-02-26T03:01:45.694Z,9.47
2019-02-26T03:02:14.977Z,9.41
2019-02-26T03:02:43.149Z,9.43
2019-02-26T03:03:10.962Z,9.41
2019-02-26T03:03:37.065Z,9.39
2019-02-26T03:04:05.824Z,9.31
2019-02-26T03:04:34.969Z,9.37
2019-02-26T03:05:01.045Z,9.25
2019-02-26T03:05:31.116Z,9.25
2019-02-26T03:05:58.222Z,9.26
2019-02-26T03:06:28.017Z,9.19
2019-02-26T03:06:56.047Z,9.25
2019-02-26T03:07:27.332Z,9.26
2019-02-26T03:07:53.869Z,9.26
2019-02-26T03:08:22.295Z,9.32
2019-02-26T03:08:51.428Z,9.36
2019-02-26T03:09:19.798Z,9.39
2019-02-26T03:09:48.784Z,9.48
2019-02-26T03:10:16.896Z,9.41
2019-02-26T03:10:45.995Z,9.47
2019-02-26T03:11:12.106Z,9.47
2019-02-26T03:11:41.870Z,9.46
2019-02-26T03:12:08.304Z,9.37
2019-02-26T03:12:34.442Z,9.34
2019-02-26T03:13:02.933Z,9.26
2019-02-26T03:13:30.686Z,9.21
2019-02-26T03:13:59.174Z,9.23
2019-02-26T03:14:30.663Z,9.11
2019-02-26T03:14:59.729Z,9.14
2019-02-26T03:15:29.145Z,9.08
2019-02-26T03:15:56.703Z,9.16
2019-02-26T03:16:26.703Z,9.06
2019-02-26T03:16:53.422Z,9.08
2019-02-26T03:17:22.146Z,9.03
2019-02-26T03:17:48.256Z,9
2019-02-26T03:18:16.858Z,8.91
2019-02-26T03:18:43.002Z,8.89
2019-02-26T03:19:12.152Z,8.87
2019-02-26T03:19:41.452Z,8.82
2019-02-26T03:20:09.983Z,8.85
2019-02-26T03:20:39.797Z,8.85
2019-02-26T03:21:04.796Z,8.81
2019-02-26T03:21:33.310Z,8.85
2019-02-26T03:22:01.401Z,8.88
2019-02-26T03:22:30.479Z,8.84
2019-02-26T03:22:59.551Z,8.79
2019-02-26T03:23:28.631Z,8.82
2019-02-26T03:23:57.769Z,8.87
2019-02-26T03:24:26.094Z,8.79
2019-02-26T03:24:56.821Z,9
2019-02-26T03:25:24.195Z,8.89
2019-02-26T03:25:52.933Z,8.97
2019-02-26T03:26:23.368Z,8.99
2019-02-26T03:26:48.874Z,9
2019-02-26T03:27:14.980Z,9.03
2019-02-26T03:27:43.086Z,9.16
2019-02-26T03:28:09.198Z,9.13
2019-02-26T03:28:37.462Z,9.1
2019-02-26T03:29:05.377Z,9.22
2019-02-26T03:29:31.502Z,9.22
2019-02-26T03:30:01.870Z,9.26
2019-02-26T03:30:33.708Z,9.25
2019-02-26T03:30:57.746Z,9.31
2019-02-26T03:31:25.748Z,9.37
2019-02-26T03:31:55.600Z,9.36
2019-02-26T03:32:21.731Z,9.43
2019-02-26T03:32:57.591Z,9.43
2019-02-26T03:33:19.940Z,9.47
2019-02-26T03:33:46.066Z,9.4
2019-02-26T03:34:20.179Z,9.41
2019-02-26T03:34:43.284Z,9.54
2019-02-26T03:35:13.193Z,9.58
2019-02-26T03:35:39.608Z,9.58
2019-02-26T03:36:07.976Z,9.58
2019-02-26T03:36:38.068Z,9.55
2019-02-26T03:37:06.155Z,9.43
2019-02-26T03:37:36.113Z,9.43
2019-02-26T03:38:03.566Z,9.4
2019-02-26T03:38:32.778Z,9.39
2019-02-26T03:39:02.799Z,9.41
2019-02-26T03:39:28.943Z,9.32
2019-02-26T03:39:57.292Z,9.4
2019-02-26T03:40:27.003Z,9.21
2019-02-26T03:40:55.399Z,9.14
2019-02-26T03:41:25.052Z,9.08
2019-02-26T03:41:53.402Z,9.03
2019-02-26T03:42:21.158Z,9.08
2019-02-26T03:42:49.618Z,8.95
2019-02-26T03:43:18.692Z,9.04
2019-02-26T03:43:47.026Z,9.04
2019-02-26T03:44:15.136Z,9.04
2019-02-26T03:44:46.057Z,9.04
2019-02-26T03:45:10.340Z,9.08
2019-02-26T03:45:37.439Z,9.06
2019-02-26T03:46:04.555Z,9.06
2019-02-26T03:46:30.644Z,8.99
2019-02-26T03:46:56.787Z,9
2019-02-26T03:47:23.880Z,8.92
2019-02-26T03:47:50.993Z,8.88
2019-02-26T03:48:20.024Z,8.87
2019-02-26T03:48:45.189Z,8.82
2019-02-26T03:49:12.322Z,8.85
2019-02-26T03:49:41.649Z,8.88
2019-02-26T03:50:09.322Z,8.94
2019-02-26T03:50:34.627Z,8.94
2019-02-26T03:51:02.714Z,8.85
2019-02-26T03:51:29.810Z,8.84
2019-02-26T03:51:59.973Z,8.88
2019-02-26T03:52:24.992Z,8.99
2019-02-26T03:52:51.121Z,9
2019-02-26T03:53:18.218Z,9.08
2019-02-26T03:53:48.273Z,8.97
2019-02-26T03:54:14.387Z,9.02
2019-02-26T03:54:42.854Z,9.02
2019-02-26T03:55:12.031Z,9.04
2019-02-26T03:55:41.867Z,9.08
2019-02-26T03:56:12.337Z,9.04
2019-02-26T03:56:37.775Z,9.16
2019-02-26T03:57:03.877Z,9.13
2019-02-26T03:57:32.970Z,9.1
2019-02-26T03:58:02.316Z,9.28
2019-02-26T03:58:28.391Z,9.23
2019-02-26T03:58:57.679Z,9.18
2019-02-26T03:59:24.607Z,9.14
2019-02-26T03:59:50.709Z,9.22
2019-02-26T04:00:20.413Z,9.23
2019-02-26T04:00:49.531Z,9.23
2019-02-26T04:01:21.000Z,9.26
2019-02-26T04:01:44.745Z,9.26
2019-02-26T04:02:14.473Z,9.28
2019-02-26T04:02:43.035Z,9.28
2019-02-26T04:03:11.958Z,9.28
2019-02-26T04:03:39.510Z,9.37
2019-02-26T04:04:07.722Z,9.31
2019-02-26T04:04:35.861Z,9.34
2019-02-26T04:05:06.731Z,9.34
2019-02-26T04:05:31.140Z,9.41
2019-02-26T04:06:00.235Z,9.39
2019-02-26T04:06:25.391Z,9.43
2019-02-26T04:06:55.755Z,9.4
2019-02-26T04:07:25.825Z,9.43
2019-02-26T04:07:55.522Z,9.41
2019-02-26T04:08:22.445Z,9.47
2019-02-26T04:08:50.963Z,9.4
2019-02-26T04:09:19.544Z,9.46
2019-02-26T04:09:47.235Z,9.48
2019-02-26T04:10:12.692Z,9.54
2019-02-26T04:10:38.795Z,9.56
2019-02-26T04:11:07.870Z,9.5
2019-02-26T04:11:36.008Z,9.48
2019-02-26T04:12:04.114Z,9.56
2019-02-26T04:12:35.783Z,9.62
2019-02-26T04:13:02.417Z,9.55
2019-02-26T04:13:28.576Z,9.68
2019-02-26T04:13:56.771Z,9.66
2019-02-26T04:14:28.191Z,9.59
2019-02-26T04:14:52.945Z,9.62
2019-02-26T04:15:19.050Z,9.73
2019-02-26T04:15:47.166Z,9.68
2019-02-26T04:16:15.252Z,9.76
2019-02-26T04:16:43.666Z,9.69
2019-02-26T04:17:12.795Z,9.74
2019-02-26T04:17:42.289Z,9.76
2019-02-26T04:18:08.385Z,9.73
2019-02-26T04:18:34.924Z,9.76
2019-02-26T04:19:02.003Z,9.72
2019-02-26T04:19:30.101Z,9.72
2019-02-26T04:19:56.252Z,9.77
2019-02-26T04:20:26.873Z,9.72
2019-02-26T04:20:51.449Z,9.84
2019-02-26T04:21:21.160Z,9.79
2019-02-26T04:21:47.357Z,9.82
2019-02-26T04:22:15.167Z,9.76
2019-02-26T04:22:46.043Z,9.83
2019-02-26T04:23:13.975Z,9.77
2019-02-26T04:23:43.920Z,9.8
2019-02-26T04:24:11.402Z,9.76
2019-02-26T04:24:40.499Z,9.79
2019-02-26T04:25:09.568Z,9.83
2019-02-26T04:25:38.644Z,9.8
2019-02-26T04:26:06.772Z,9.77
2019-02-26T04:26:36.840Z,9.83
2019-02-26T04:27:02.995Z,9.84
2019-02-26T04:27:30.586Z,9.83
2019-02-26T04:27:59.721Z,9.87
2019-02-26T04:28:28.343Z,9.84
2019-02-26T04:28:57.359Z,9.82
2019-02-26T04:29:23.563Z,9.86
2019-02-26T04:29:52.632Z,9.92
2019-02-26T04:30:20.719Z,9.97
2019-02-26T04:30:52.285Z,9.86
2019-02-26T04:31:16.929Z,9.94
2019-02-26T04:31:44.437Z,9.92
2019-02-26T04:32:15.004Z,9.94
2019-02-26T04:32:43.530Z,9.92
2019-02-26T04:33:14.034Z,9.95
2019-02-26T04:33:41.440Z,9.95
2019-02-26T04:34:09.560Z,9.84
2019-02-26T04:34:35.688Z,9.91
2019-02-26T04:35:02.968Z,9.83
2019-02-26T04:35:29.075Z,9.86
2019-02-26T04:35:57.160Z,9.94
2019-02-26T04:36:26.232Z,9.94
2019-02-26T04:36:53.345Z,9.91
2019-02-26T04:37:24.662Z,9.86
2019-02-26T04:37:53.102Z,9.89
2019-02-26T04:38:22.819Z,9.91
2019-02-26T04:38:50.268Z,9.92
2019-02-26T04:39:21.375Z,9.92
2019-02-26T04:39:47.768Z,9.84
2019-02-26T04:40:15.842Z,9.97
2019-02-26T04:40:43.982Z,9.97
2019-02-26T04:41:15.857Z,9.8
2019-02-26T04:41:40.185Z,9.89
2019-02-26T04:42:09.200Z,9.82
2019-02-26T04:42:38.232Z,9.86
2019-02-26T04:43:07.207Z,9.77
2019-02-26T04:43:36.800Z,9.79
2019-02-26T04:44:06.076Z,9.74
2019-02-26T04:44:34.961Z,9.77
2019-02-26T04:45:05.789Z,9.82
2019-02-26T04:45:31.178Z,9.77
2019-02-26T04:45:59.264Z,9.73
2019-02-26T04:46:28.751Z,9.8
2019-02-26T04:46:57.102Z,9.79
2019-02-26T04:47:26.682Z,9.8
2019-02-26T04:47:55.390Z,9.84
2019-02-26T04:48:23.493Z,9.83
2019-02-26T04:48:49.643Z,9.89
2019-02-26T04:49:15.754Z,9.92
2019-02-26T04:49:44.829Z,9.92
2019-02-26T04:50:13.907Z,9.95
2019-02-26T04:50:44.626Z,9.92
2019-02-26T04:51:10.844Z,9.8
2019-02-26T04:51:39.798Z,9.94
2019-02-26T04:52:08.470Z,9.98
2019-02-26T04:52:38.249Z,9.89
2019-02-26T04:53:08.864Z,9.79
2019-02-26T04:53:36.440Z,9.82
2019-02-26T04:54:05.506Z,9.83
2019-02-26T04:54:36.742Z,9.86
2019-02-26T04:55:01.679Z,9.84
2019-02-26T04:55:29.657Z,9.79
2019-02-26T04:55:57.416Z,9.73
2019-02-26T04:56:25.555Z,9.66
2019-02-26T04:56:55.615Z,9.65
2019-02-26T04:57:21.752Z,9.73
2019-02-26T04:57:51.083Z,9.68
2019-02-26T04:58:18.124Z,9.68
2019-02-26T04:58:45.831Z,9.73
2019-02-26T04:59:14.965Z,9.62
2019-02-26T04:59:43.945Z,9.72
2019-02-26T05:00:13.077Z,9.69
2019-02-26T05:00:41.188Z,9.79
2019-02-26T05:01:09.883Z,9.65
2019-02-26T05:01:35.433Z,9.66
2019-02-26T05:02:03.546Z,9.74
2019-02-26T05:02:29.679Z,9.64
2019-02-26T05:02:55.815Z,9.74
2019-02-26T05:03:24.892Z,9.68
2019-02-26T05:03:50.991Z,9.79
2019-02-26T05:04:17.131Z,9.76
2019-02-26T05:04:44.315Z,9.74
2019-02-26T05:05:10.423Z,9.77
2019-02-26T05:05:39.486Z,9.74
2019-02-26T05:06:10.493Z,9.79
2019-02-26T05:06:35.659Z,9.84
2019-02-26T05:07:04.179Z,9.83
2019-02-26T05:07:32.809Z,9.84
2019-02-26T05:08:00.499Z,9.84
2019-02-26T05:08:29.307Z,9.8
2019-02-26T05:08:59.468Z,9.82
2019-02-26T05:09:27.191Z,9.82
2019-02-26T05:09:56.658Z,9.77
2019-02-26T05:10:24.061Z,9.74
2019-02-26T05:10:52.315Z,9.65
2019-02-26T05:11:31.321Z,9.68
2019-02-26T05:11:50.114Z,9.62
2019-02-26T05:12:16.223Z,9.56
2019-02-26T05:12:45.323Z,9.59
2019-02-26T05:13:15.040Z,9.64
2019-02-26T05:13:44.057Z,9.58
2019-02-26T05:14:11.700Z,9.58
2019-02-26T05:14:39.333Z,9.62
2019-02-26T05:15:05.660Z,9.66
2019-02-26T05:15:35.718Z,9.61
2019-02-26T05:16:02.816Z,9.64
2019-02-26T05:16:32.553Z,9.58
2019-02-26T05:16:57.037Z,9.58
2019-02-26T05:17:27.096Z,9.61
2019-02-26T05:17:52.237Z,9.73
2019-02-26T05:18:20.283Z,9.64
2019-02-26T05:18:49.439Z,9.64
2019-02-26T05:19:18.472Z,9.65
2019-02-26T05:19:48.387Z,9.66
2019-02-26T05:20:16.408Z,9.65
2019-02-26T05:20:47.973Z,9.72
2019-02-26T05:21:13.098Z,9.77
2019-02-26T05:21:41.156Z,9.62
2019-02-26T05:22:10.265Z,9.64
2019-02-26T05:22:38.663Z,9.73
2019-02-26T05:23:06.751Z,9.66
2019-02-26T05:23:33.866Z,9.69
2019-02-26T05:24:02.997Z,9.79
2019-02-26T05:24:31.075Z,9.72
2019-02-26T05:25:00.232Z,9.69
2019-02-26T05:25:30.900Z,9.74
2019-02-26T05:26:00.490Z,9.66
2019-02-26T05:26:29.853Z,9.69
2019-02-26T05:26:54.556Z,9.65
2019-02-26T05:27:24.793Z,9.62
2019-02-26T05:27:51.744Z,9.74
2019-02-26T05:28:20.822Z,9.68
2019-02-26T05:28:49.756Z,9.74
2019-02-26T05:29:16.031Z,9.68
2019-02-26T05:29:45.741Z,9.74
2019-02-26T05:30:13.776Z,9.69
2019-02-26T05:30:40.312Z,9.68
2019-02-26T05:31:09.738Z,9.73
2019-02-26T05:31:40.037Z,9.69
2019-02-26T05:32:09.107Z,9.61
2019-02-26T05:32:36.011Z,9.56
2019-02-26T05:33:05.544Z,9.69
2019-02-26T05:33:33.174Z,9.56
2019-02-26T05:34:01.258Z,9.51
2019-02-26T05:34:29.373Z,9.58
2019-02-26T05:34:57.456Z,9.56
2019-02-26T05:35:25.541Z,9.56
2019-02-26T05:35:54.630Z,9.61
2019-02-26T05:36:22.720Z,9.58
2019-02-26T05:36:50.875Z,9.59
2019-02-26T05:37:19.014Z,9.61
2019-02-26T05:37:48.095Z,9.58
2019-02-26T05:38:17.173Z,9.56
2019-02-26T05:38:46.245Z,9.55
2019-02-26T05:39:15.090Z,9.59
2019-02-26T05:39:46.606Z,9.51
2019-02-26T05:40:14.985Z,9.58
2019-02-26T05:40:42.713Z,9.55
2019-02-26T05:41:10.683Z,9.54
2019-02-26T05:41:36.780Z,9.55
2019-02-26T05:42:06.256Z,9.5
2019-02-26T05:42:31.970Z,9.5
2019-02-26T05:43:01.231Z,9.44
2019-02-26T05:43:30.311Z,9.43
2019-02-26T05:43:58.246Z,9.37
2019-02-26T05:44:26.320Z,9.25
2019-02-26T05:44:54.431Z,9.06
2019-02-26T05:45:21.943Z,9.06
2019-02-26T05:45:50.929Z,9.04
2019-02-26T05:46:21.952Z,8.94
2019-02-26T05:46:47.387Z,8.99
2019-02-26T05:47:18.647Z,8.89
2019-02-26T05:47:45.897Z,9.04
2019-02-26T05:48:15.168Z,8.97
2019-02-26T05:48:42.900Z,9.06
2019-02-26T05:49:13.366Z,8.88
2019-02-26T05:49:41.258Z,8.88
2019-02-26T05:50:09.386Z,8.99
2019-02-26T05:50:36.085Z,8.97
2019-02-26T05:51:05.582Z,8.88
2019-02-26T05:51:35.427Z,8.99
2019-02-26T05:52:02.054Z,8.92
2019-02-26T05:52:30.532Z,9
2019-02-26T05:53:01.673Z,8.99
2019-02-26T05:53:27.886Z,9.02
2019-02-26T05:53:54.022Z,9
2019-02-26T05:54:24.460Z,9
2019-02-26T05:54:52.512Z,9.03
2019-02-26T05:55:20.467Z,9.03
2019-02-26T05:55:50.126Z,9.14
2019-02-26T05:56:17.127Z,9.1
2019-02-26T05:56:46.760Z,9.04
2019-02-26T05:57:25.854Z,9
2019-02-26T05:57:41.058Z,9
2019-02-26T05:58:07.873Z,9.04
2019-02-26T05:58:39.264Z,9.02
2019-02-26T05:59:07.369Z,9.02
2019-02-26T05:59:35.454Z,9.04
2019-02-26T06:00:02.577Z,9.08
2019-02-26T06:00:33.222Z,9.02
2019-02-26T06:00:59.402Z,9.08
2019-02-26T06:01:27.807Z,9.02
2019-02-26T06:01:55.840Z,9.06
2019-02-26T06:02:24.574Z,9.06
2019-02-26T06:02:52.828Z,8.97
2019-02-26T06:03:21.958Z,9.02
2019-02-26T06:03:51.851Z,9
2019-02-26T06:04:20.767Z,9.02
2019-02-26T06:04:49.859Z,9.04
2019-02-26T06:05:18.218Z,9
2019-02-26T06:05:46.352Z,9
2019-02-26T06:06:14.151Z,9
2019-02-26T06:06:40.260Z,9.03
2019-02-26T06:07:09.355Z,9.08
2019-02-26T06:07:39.417Z,9.08
2019-02-26T06:08:06.547Z,9.08
2019-02-26T06:08:36.254Z,9.1
2019-02-26T06:09:05.519Z,9.04
2019-02-26T06:09:32.958Z,9.03
2019-02-26T06:09:59.389Z,9.13
2019-02-26T06:10:27.106Z,9.16
2019-02-26T06:10:53.577Z,9.02
2019-02-26T06:11:20.678Z,9
2019-02-26T06:11:50.741Z,9
2019-02-26T06:12:16.848Z,9.13
2019-02-26T06:12:46.600Z,9.14